Time;durP1;ratioP1;P1;durP2;ratioP2;P2;SDS_P1;SDS_P2;PMS_P1;PMS_P2;Temp;Humidity;BMP_temperature;BMP_pressure;BME280_temperature;BME280_humidity;BME280_pressure;Samples;Min_cycle;Max_cycle;Signal;HPM_P1;HPM_P2
2022/03/26 00:01:23;;;;;;;5.53;1.10;;;21.20;99.90;;;;;;5073561;28;20029;-79
2022/03/26 00:03:50;;;;;;;5.63;1.77;;;21.30;99.90;;;;;;5055438;28;20059;-79
2022/03/26 00:06:18;;;;;;;4.95;1.10;;;21.30;99.90;;;;;;5055664;28;20031;-79
2022/03/26 00:08:48;;;;;;;3.97;1.10;;;21.50;99.90;;;;;;5073378;28;20090;-79
2022/03/26 00:11:16;;;;;;;3.40;0.93;;;21.60;99.90;;;;;;5055270;28;20044;-79
2022/03/26 00:13:43;;;;;;;3.40;1.00;;;21.60;99.90;;;;;;5073218;28;20095;-79
2022/03/26 00:16:11;;;;;;;3.33;1.05;;;21.70;99.90;;;;;;5073000;28;20480;-79
2022/03/26 00:18:38;;;;;;;2.15;0.65;;;21.70;99.90;;;;;;5055071;28;20025;-79
2022/03/26 00:21:06;;;;;;;4.97;1.35;;;21.70;99.90;;;;;;5073160;28;20082;-79
2022/03/26 00:23:34;;;;;;;3.78;1.00;;;21.70;99.90;;;;;;5073167;28;20025;-79
2022/03/26 00:26:02;;;;;;;4.97;1.33;;;21.80;99.90;;;;;;5055203;28;20028;-80
2022/03/26 00:28:29;;;;;;;3.13;1.30;;;21.80;99.90;;;;;;5073074;28;20024;-79
2022/03/26 00:30:57;;;;;;;3.97;1.50;;;21.90;99.90;;;;;;5055002;28;20055;-79
2022/03/26 00:33:25;;;;;;;4.15;1.58;;;21.90;99.90;;;;;;5055094;28;20025;-79
2022/03/26 00:35:52;;;;;;;4.45;1.20;;;21.90;99.90;;;;;;5055027;28;20115;-79
2022/03/26 00:38:19;;;;;;;4.95;1.10;;;21.90;99.90;;;;;;5072916;28;20067;-79
2022/03/26 00:40:47;;;;;;;3.38;1.15;;;21.90;99.90;;;;;;5054842;28;20077;-79
2022/03/26 00:43:14;;;;;;;2.88;0.90;;;22.10;99.90;;;;;;5054946;28;20025;-79
2022/03/26 00:45:45;;;;;;;5.03;1.02;;;22.10;99.90;;;;;;5054632;28;20111;-79
2022/03/26 00:48:12;;;;;;;3.35;1.00;;;22.10;99.90;;;;;;5072616;28;20012;-79
2022/03/26 00:50:40;;;;;;;3.63;1.08;;;22.10;99.90;;;;;;5054433;28;20222;-79
2022/03/26 00:53:07;;;;;;;5.97;1.40;;;22.20;99.90;;;;;;5072702;28;20488;-78
2022/03/26 00:55:34;;;;;;;4.05;1.25;;;22.20;99.90;;;;;;5054730;28;20521;-79
2022/03/26 00:58:02;;;;;;;4.05;1.15;;;22.20;99.90;;;;;;5054682;28;20025;-78
2022/03/26 01:00:29;;;;;;;2.63;1.05;;;22.10;99.90;;;;;;5054562;28;20162;-78
2022/03/26 01:02:58;;;;;;;3.22;1.08;;;22.00;99.90;;;;;;5072477;28;20489;-78
2022/03/26 01:05:25;;;;;;;5.45;1.17;;;22.10;99.90;;;;;;5072560;28;20102;-79
2022/03/26 01:07:53;;;;;;;4.93;1.30;;;22.20;99.90;;;;;;5054474;28;20385;-78
2022/03/26 01:10:20;;;;;;;5.25;1.00;;;22.20;99.90;;;;;;5072361;28;20045;-78
2022/03/26 01:12:48;;;;;;;2.53;1.00;;;22.20;99.90;;;;;;5054419;28;20492;-78
2022/03/26 01:15:15;;;;;;;3.00;0.88;;;22.10;99.90;;;;;;5072571;28;20089;-78
2022/03/26 01:17:42;;;;;;;4.95;1.33;;;22.00;99.90;;;;;;5054459;28;20025;-78
2022/03/26 01:20:10;;;;;;;4.32;1.10;;;21.90;99.90;;;;;;5072403;28;20448;-78
2022/03/26 01:22:37;;;;;;;4.07;1.00;;;21.80;99.90;;;;;;5072296;28;20020;-79
2022/03/26 01:25:06;;;;;;;4.60;1.05;;;21.70;99.90;;;;;;5072330;28;20052;-78
2022/03/26 01:27:33;;;;;;;3.65;1.00;;;21.60;99.90;;;;;;5072285;28;20066;-78
2022/03/26 01:30:01;;;;;;;3.08;0.98;;;21.60;99.90;;;;;;5072267;28;20023;-78
2022/03/26 01:32:28;;;;;;;4.20;1.02;;;21.60;99.90;;;;;;5054268;28;20021;-79
2022/03/26 01:34:56;;;;;;;4.07;1.10;;;21.60;99.90;;;;;;5072291;28;20099;-79
2022/03/26 01:37:24;;;;;;;4.93;0.90;;;21.70;99.90;;;;;;5054150;28;20024;-78
2022/03/26 01:39:52;;;;;;;2.55;0.90;;;21.80;99.90;;;;;;5072097;28;20016;-79
2022/03/26 01:42:19;;;;;;;2.50;0.95;;;21.80;99.90;;;;;;5072086;28;20081;-79
2022/03/26 01:44:47;;;;;;;3.83;0.73;;;22.00;99.90;;;;;;5072066;28;20029;-79
2022/03/26 01:47:14;;;;;;;1.60;0.50;;;22.10;99.90;;;;;;5054079;28;20063;-79
2022/03/26 01:49:42;;;;;;;2.50;0.85;;;22.20;99.90;;;;;;5054054;28;20028;-78
2022/03/26 01:52:10;;;;;;;2.08;0.95;;;22.30;99.90;;;;;;5072024;28;20070;-79
2022/03/26 01:54:39;;;;;;;3.00;1.10;;;22.40;99.90;;;;;;5054019;28;20025;-79
2022/03/26 01:57:10;;;;;;;5.63;1.30;;;22.60;99.90;;;;;;5072010;28;20481;-79
2022/03/26 01:59:40;;;;;;;2.10;0.85;;;22.70;99.90;;;;;;5072056;28;20028;-78
2022/03/26 02:02:09;;;;;;;3.20;0.80;;;22.80;99.90;;;;;;5054795;28;20029;-79
2022/03/26 02:04:36;;;;;;;2.55;0.50;;;22.80;99.90;;;;;;5057742;28;20441;-79
2022/03/26 02:07:06;;;;;;;2.15;0.63;;;22.80;99.90;;;;;;5075838;28;20048;-79
2022/03/26 02:09:37;;;;;;;1.85;0.80;;;22.80;99.90;;;;;;5075478;28;20048;-79
2022/03/26 02:12:21;;;;;;;;;;;22.90;99.90;;;;;;5076242;28;20617;-79
2022/03/26 02:14:49;;;;;;;3.50;0.70;;;23.00;99.90;;;;;;5075654;28;19905;-78
2022/03/26 02:17:19;;;;;;;2.75;0.70;;;23.00;99.90;;;;;;5057625;28;20473;-77
2022/03/26 02:19:53;;;;;;;3.50;0.77;;;23.20;99.90;;;;;;5057544;28;20174;-78
2022/03/26 02:22:22;;;;;;;2.20;0.70;;;23.40;99.90;;;;;;5075632;28;20035;-78
2022/03/26 02:24:50;;;;;;;3.90;1.10;;;23.40;99.90;;;;;;5057346;28;20107;-78
2022/03/26 02:27:18;;;;;;;2.17;0.85;;;23.40;99.90;;;;;;5057425;28;20017;-78
2022/03/26 02:29:45;;;;;;;2.05;0.90;;;23.20;99.90;;;;;;5075306;28;20130;-79
2022/03/26 02:32:13;;;;;;;3.47;1.20;;;23.00;99.90;;;;;;5075365;28;20023;-78
2022/03/26 02:34:40;;;;;;;6.97;1.42;;;22.40;99.90;;;;;;5057272;28;20052;-78
2022/03/26 02:37:07;;;;;;;5.30;1.15;;;22.10;99.90;;;;;;5057355;28;20464;-78
2022/03/26 02:39:35;;;;;;;5.55;1.38;;;22.00;99.90;;;;;;5075114;28;20108;-79
2022/03/26 02:42:02;;;;;;;2.58;1.08;;;21.80;99.90;;;;;;5075192;28;20451;-78
2022/03/26 02:44:29;;;;;;;3.72;1.38;;;21.60;99.90;;;;;;5074932;28;20508;-78
2022/03/26 02:46:57;;;;;;;4.20;1.20;;;21.60;99.90;;;;;;5057270;28;20025;-78
2022/03/26 02:49:25;;;;;;;5.18;1.60;;;21.50;99.90;;;;;;5075077;28;20102;-79
2022/03/26 02:51:52;;;;;;;6.43;1.38;;;21.50;99.90;;;;;;5057037;28;20067;-79
2022/03/26 02:54:19;;;;;;;4.53;0.95;;;21.50;99.90;;;;;;5074873;28;20028;-79
2022/03/26 02:56:48;;;;;;;4.28;1.00;;;21.60;99.90;;;;;;5057171;28;20035;-79
2022/03/26 02:59:17;;;;;;;3.65;1.10;;;21.70;99.90;;;;;;5074780;28;20070;-79
2022/03/26 03:01:45;;;;;;;3.13;0.75;;;21.70;99.90;;;;;;5074922;28;20061;-79
2022/03/26 03:04:13;;;;;;;3.83;1.13;;;21.70;99.90;;;;;;5056495;28;20544;-79
2022/03/26 03:06:40;;;;;;;2.88;0.88;;;21.80;99.90;;;;;;5056768;28;20063;-79
2022/03/26 03:09:08;;;;;;;1.95;0.70;;;21.90;99.90;;;;;;5074413;28;20065;-78
2022/03/26 03:11:37;;;;;;;2.58;1.08;;;21.80;99.90;;;;;;5056637;28;20067;-79
2022/03/26 03:14:05;;;;;;;3.65;0.95;;;21.70;99.90;;;;;;5056303;28;20472;-79
2022/03/26 03:16:33;;;;;;;5.65;2.33;;;21.70;99.90;;;;;;5074531;28;20021;-79
2022/03/26 03:19:01;;;;;;;5.28;1.52;;;21.70;99.90;;;;;;5056503;28;20036;-78
2022/03/26 03:21:28;;;;;;;3.95;1.20;;;21.80;99.90;;;;;;5056393;28;20020;-78
2022/03/26 03:23:56;;;;;;;3.80;1.33;;;22.00;99.90;;;;;;5056386;28;20028;-79
2022/03/26 03:26:23;;;;;;;5.47;1.10;;;22.20;99.90;;;;;;5056394;28;20025;-78
2022/03/26 03:28:50;;;;;;;4.72;1.17;;;22.20;99.90;;;;;;5056395;28;20044;-79
2022/03/26 03:31:18;;;;;;;5.57;1.20;;;22.20;99.90;;;;;;5056292;28;20086;-79
2022/03/26 03:33:46;;;;;;;3.90;1.00;;;22.10;99.90;;;;;;5074284;28;20025;-79
2022/03/26 03:36:14;;;;;;;3.55;1.08;;;21.90;99.90;;;;;;5056115;28;20475;-80
2022/03/26 03:38:41;;;;;;;4.47;1.23;;;22.10;99.90;;;;;;5074233;28;20028;-78
2022/03/26 03:41:09;;;;;;;5.20;1.00;;;22.10;99.90;;;;;;5056167;28;20370;-80
2022/03/26 03:43:36;;;;;;;3.28;0.80;;;22.00;99.90;;;;;;5056051;28;20036;-79
2022/03/26 03:46:04;;;;;;;3.00;0.80;;;22.00;99.90;;;;;;5073929;28;20023;-80
2022/03/26 03:48:31;;;;;;;2.13;0.73;;;21.90;99.90;;;;;;5074004;28;20499;-79
2022/03/26 03:50:58;;;;;;;2.28;0.75;;;22.00;99.90;;;;;;5056060;28;20416;-79
2022/03/26 03:53:26;;;;;;;2.92;0.77;;;22.00;99.90;;;;;;5073891;28;20013;-79
2022/03/26 03:55:53;;;;;;;4.30;0.60;;;22.10;99.90;;;;;;5055780;28;20496;-79
2022/03/26 03:58:20;;;;;;;2.72;0.75;;;22.10;99.90;;;;;;5055807;28;20031;-79
2022/03/26 04:00:48;;;;;;;2.97;0.60;;;22.10;99.90;;;;;;5055719;28;20024;-80
2022/03/26 04:03:17;;;;;;;2.03;0.80;;;22.10;99.90;;;;;;5074423;28;20021;-81
2022/03/26 04:05:44;;;;;;;2.17;0.70;;;22.20;99.90;;;;;;5073588;28;20024;-79
2022/03/26 04:08:12;;;;;;;3.03;0.70;;;22.30;99.90;;;;;;5073450;28;20020;-78
2022/03/26 04:10:39;;;;;;;3.85;0.95;;;22.20;99.90;;;;;;5055623;28;20040;-79
2022/03/26 04:13:07;;;;;;;3.15;0.90;;;22.10;99.90;;;;;;5055821;28;20361;-81
2022/03/26 04:15:34;;;;;;;5.40;1.02;;;22.00;99.90;;;;;;5073712;28;20024;-79
2022/03/26 04:18:02;;;;;;;3.55;0.77;;;22.00;99.90;;;;;;5073420;28;20044;-78
2022/03/26 04:20:30;;;;;;;2.42;0.80;;;22.10;99.90;;;;;;5073450;28;20104;-77
2022/03/26 04:22:57;;;;;;;2.10;0.75;;;22.20;99.90;;;;;;5073691;28;20028;-77
2022/03/26 04:25:25;;;;;;;2.63;0.80;;;22.20;99.90;;;;;;5072889;28;20021;-78
2022/03/26 04:27:52;;;;;;;3.50;0.70;;;22.30;99.90;;;;;;5055088;28;20396;-76
2022/03/26 04:30:20;;;;;;;4.00;0.60;;;22.20;99.90;;;;;;5073077;28;20012;-78
2022/03/26 04:32:48;;;;;;;2.58;0.77;;;22.20;99.90;;;;;;5055127;28;20415;-76
2022/03/26 04:35:15;;;;;;;2.05;0.60;;;22.10;99.90;;;;;;5055329;28;20508;-77
2022/03/26 04:37:43;;;;;;;1.55;0.60;;;22.10;99.90;;;;;;5055000;28;20081;-76
2022/03/26 04:40:11;;;;;;;2.22;0.90;;;22.00;99.90;;;;;;5072889;28;20415;-77
2022/03/26 04:42:48;;;;;;;2.75;1.08;;;22.00;99.90;;;;;;5072895;28;20051;-78
2022/03/26 04:45:15;;;;;;;2.90;0.73;;;22.10;99.90;;;;;;5054990;28;20039;-77
2022/03/26 04:47:43;;;;;;;2.42;0.80;;;22.10;99.90;;;;;;5054915;28;20024;-77
2022/03/26 04:50:11;;;;;;;3.58;0.80;;;22.20;99.90;;;;;;5054717;28;20024;-78
2022/03/26 04:52:40;;;;;;;4.45;1.08;;;22.20;99.90;;;;;;5054824;28;20020;-78
2022/03/26 04:55:08;;;;;;;3.83;1.60;;;22.20;99.90;;;;;;5055183;28;20035;-77
2022/03/26 04:57:43;;;;;;;3.05;0.80;;;22.10;99.90;;;;;;5054685;28;20115;-76
2022/03/26 05:00:12;;;;;;;2.17;0.68;;;22.00;99.90;;;;;;5072775;28;20024;-77
2022/03/26 05:02:40;;;;;;;2.70;0.93;;;22.00;99.90;;;;;;5072720;28;20023;-77
2022/03/26 05:05:09;;;;;;;2.83;0.77;;;21.90;99.90;;;;;;5054561;28;20025;-77
2022/03/26 05:07:46;;;;;;;3.40;0.88;;;21.90;99.90;;;;;;5072501;28;20020;-77
2022/03/26 05:10:18;;;;;;;3.13;0.73;;;22.00;99.90;;;;;;5072515;28;20098;-77
2022/03/26 05:12:47;;;;;;;3.17;0.80;;;22.00;99.90;;;;;;5054669;28;20115;-78
2022/03/26 05:15:15;;;;;;;2.58;0.70;;;22.10;99.90;;;;;;5054472;28;20111;-78
2022/03/26 05:17:43;;;;;;;2.30;0.70;;;22.20;99.90;;;;;;5054790;28;20032;-79
2022/03/26 05:20:12;;;;;;;2.25;0.80;;;22.20;99.90;;;;;;5054638;28;20020;-79
2022/03/26 05:22:41;;;;;;;3.88;0.95;;;22.10;99.90;;;;;;5072583;28;20414;-78
2022/03/26 05:25:09;;;;;;;2.90;0.82;;;22.20;99.90;;;;;;5054652;28;20516;-79
2022/03/26 05:27:37;;;;;;;2.30;0.90;;;22.10;99.90;;;;;;5054287;28;20548;-80
2022/03/26 05:30:08;;;;;;;2.80;0.82;;;22.20;99.90;;;;;;5072589;28;20055;-79
2022/03/26 05:32:36;;;;;;;4.88;1.30;;;22.20;99.90;;;;;;5072724;28;20017;-79
2022/03/26 05:35:06;;;;;;;2.70;0.88;;;22.20;99.90;;;;;;5054729;28;20051;-80
2022/03/26 05:37:34;;;;;;;2.25;0.80;;;22.30;99.90;;;;;;5057706;28;20032;-80
2022/03/26 05:40:01;;;;;;;4.07;0.77;;;22.30;99.90;;;;;;5058359;28;20032;-79
2022/03/26 05:42:28;;;;;;;1.70;0.57;;;22.20;99.90;;;;;;5058714;28;20120;-79
2022/03/26 05:44:56;;;;;;;2.20;0.60;;;22.30;99.90;;;;;;5076375;28;20520;-80
2022/03/26 05:47:26;;;;;;;3.55;0.80;;;22.20;99.90;;;;;;5076536;28;20032;-79
2022/03/26 05:49:53;;;;;;;3.25;0.70;;;22.30;99.90;;;;;;5076202;28;20017;-79
2022/03/26 05:52:21;;;;;;;2.63;0.93;;;22.30;99.90;;;;;;5058482;28;20057;-80
2022/03/26 05:54:48;;;;;;;4.70;0.70;;;22.30;99.90;;;;;;5058208;28;20028;-79
2022/03/26 05:57:16;;;;;;;3.25;0.60;;;22.20;99.90;;;;;;5058251;28;20477;-77
2022/03/26 05:59:43;;;;;;;1.98;0.50;;;22.20;99.90;;;;;;5076183;28;20028;-76
2022/03/26 06:02:13;;;;;;;2.20;0.90;;;22.10;99.90;;;;;;5057945;28;20408;-76
2022/03/26 06:04:42;;;;;;;4.55;0.88;;;22.10;99.90;;;;;;5057738;28;20032;-77
2022/03/26 06:07:10;;;;;;;2.95;0.70;;;22.20;99.90;;;;;;5057994;28;20449;-78
2022/03/26 06:09:38;;;;;;;3.60;0.60;;;22.40;99.90;;;;;;5057786;28;20044;-78
2022/03/26 06:12:06;;;;;;;3.70;0.73;;;22.40;99.90;;;;;;5075828;28;20025;-78
2022/03/26 06:14:34;;;;;;;1.88;0.50;;;22.40;99.90;;;;;;5075734;28;20075;-77
2022/03/26 06:17:02;;;;;;;2.63;0.80;;;22.50;99.90;;;;;;5057679;28;20392;-78
2022/03/26 06:19:30;;;;;;;2.80;0.88;;;22.50;99.90;;;;;;5057548;28;20122;-78
2022/03/26 06:21:57;;;;;;;1.95;0.70;;;22.70;99.90;;;;;;5057778;28;20129;-78
2022/03/26 06:24:24;;;;;;;2.72;0.90;;;22.50;99.90;;;;;;5057525;28;20500;-78
2022/03/26 06:26:52;;;;;;;4.45;1.10;;;22.30;99.90;;;;;;5075626;28;20048;-77
2022/03/26 06:29:20;;;;;;;3.20;0.70;;;22.30;99.90;;;;;;5057605;28;20033;-78
2022/03/26 06:31:48;;;;;;;2.78;0.80;;;22.40;99.90;;;;;;5057449;28;20070;-78
2022/03/26 06:34:15;;;;;;;2.22;0.73;;;22.20;99.90;;;;;;5075404;28;20494;-78
2022/03/26 06:36:43;;;;;;;1.95;0.70;;;22.10;99.90;;;;;;5057428;28;20092;-78
2022/03/26 06:39:10;;;;;;;3.15;0.80;;;21.90;99.90;;;;;;5040797;28;20059;-78
2022/03/26 06:41:41;;;;;;;2.22;0.98;;;21.80;99.90;;;;;;5075322;28;20046;-78
2022/03/26 06:44:09;;;;;;;3.28;0.80;;;21.70;99.90;;;;;;5057362;28;20025;-77
2022/03/26 06:46:38;;;;;;;4.40;1.10;;;21.60;99.90;;;;;;5075123;28;20059;-77
2022/03/26 06:49:10;;;;;;;2.47;0.80;;;21.50;99.90;;;;;;5074496;28;20082;-78
2022/03/26 06:51:38;;;;;;;3.50;1.23;;;21.50;99.90;;;;;;5056871;28;20052;-79
2022/03/26 06:54:06;;;;;;;2.72;0.98;;;21.50;99.90;;;;;;5056856;28;20035;-78
2022/03/26 06:56:34;;;;;;;4.65;1.00;;;21.60;99.90;;;;;;5074868;28;20025;-78
2022/03/26 06:59:01;;;;;;;3.00;1.10;;;21.50;99.90;;;;;;5056917;28;20492;-78
2022/03/26 07:01:29;;;;;;;4.00;1.00;;;21.50;99.90;;;;;;5074787;28;20033;-78
2022/03/26 07:03:56;;;;;;;3.17;1.10;;;21.40;99.90;;;;;;5056567;28;20036;-78
2022/03/26 07:06:24;;;;;;;2.03;1.10;;;21.30;99.90;;;;;;5074672;28;20020;-78
2022/03/26 07:08:51;;;;;;;4.13;1.42;;;21.30;99.90;;;;;;5074335;28;20036;-78
2022/03/26 07:11:19;;;;;;;3.03;0.98;;;21.30;99.90;;;;;;5074589;28;20370;-78
2022/03/26 07:13:46;;;;;;;3.08;1.00;;;21.30;99.90;;;;;;5074704;28;20025;-77
2022/03/26 07:16:13;;;;;;;3.72;0.93;;;21.30;99.90;;;;;;5074526;28;20021;-78
2022/03/26 07:18:41;;;;;;;2.25;1.00;;;21.30;99.90;;;;;;5074607;28;20107;-78
2022/03/26 07:21:08;;;;;;;6.90;1.15;;;21.20;99.90;;;;;;5056505;28;20510;-78
2022/03/26 07:23:35;;;;;;;2.97;0.95;;;21.10;99.90;;;;;;5074411;28;20035;-78
2022/03/26 07:26:03;;;;;;;2.92;1.05;;;21.10;99.90;;;;;;5074333;28;20021;-80
2022/03/26 07:28:31;;;;;;;2.50;0.90;;;21.10;99.90;;;;;;5056270;28;20027;-77
2022/03/26 07:30:58;;;;;;;3.58;1.10;;;21.00;99.90;;;;;;5074223;28;20013;-79
2022/03/26 07:33:26;;;;;;;4.18;1.02;;;21.00;99.90;;;;;;5074540;28;20385;-78
2022/03/26 07:35:54;;;;;;;3.70;1.00;;;20.90;99.90;;;;;;5056164;28;20056;-76
2022/03/26 07:38:21;;;;;;;3.60;1.20;;;20.90;99.90;;;;;;5073959;28;20087;-76
2022/03/26 07:40:49;;;;;;;2.95;0.98;;;20.90;99.90;;;;;;5074041;28;20469;-76
2022/03/26 07:43:16;;;;;;;4.32;1.52;;;20.90;99.90;;;;;;5055819;28;20024;-77
2022/03/26 07:45:43;;;;;;;5.70;1.83;;;20.90;99.90;;;;;;5055911;28;20028;-77
2022/03/26 07:48:11;;;;;;;4.53;1.55;;;20.80;99.90;;;;;;5055849;28;20017;-76
2022/03/26 07:50:38;;;;;;;3.95;1.35;;;20.80;99.90;;;;;;5055989;28;20025;-77
2022/03/26 07:53:06;;;;;;;4.90;1.17;;;20.80;99.90;;;;;;5073674;28;20070;-78
2022/03/26 07:55:33;;;;;;;4.43;1.45;;;20.70;99.90;;;;;;5073770;28;20457;-74
2022/03/26 07:58:01;;;;;;;3.42;1.10;;;20.70;99.90;;;;;;5073598;28;20020;-74
2022/03/26 08:00:28;;;;;;;4.45;2.05;;;20.70;99.90;;;;;;5054653;28;20021;-74
2022/03/26 08:02:55;;;;;;;3.90;1.70;;;20.60;99.90;;;;;;5073431;28;20384;-74
2022/03/26 08:05:23;;;;;;;5.07;2.00;;;20.50;99.90;;;;;;5073385;28;20151;-74
2022/03/26 08:07:50;;;;;;;4.85;2.13;;;20.50;99.90;;;;;;5073434;28;20464;-73
2022/03/26 08:10:17;;;;;;;3.25;1.92;;;20.50;99.90;;;;;;5073315;28;20032;-74
2022/03/26 08:12:45;;;;;;;5.18;1.90;;;20.50;99.90;;;;;;5073346;28;20028;-74
2022/03/26 08:15:12;;;;;;;4.85;2.40;;;20.50;99.90;;;;;;5055381;28;20031;-74
2022/03/26 08:17:39;;;;;;;6.88;2.30;;;20.40;99.90;;;;;;5073219;28;20036;-74
2022/03/26 08:20:07;;;;;;;6.22;2.28;;;20.40;99.90;;;;;;5055295;28;20502;-74
2022/03/26 08:22:35;;;;;;;6.68;2.08;;;20.40;99.90;;;;;;5055113;28;20489;-74
2022/03/26 08:25:02;;;;;;;6.20;2.65;;;20.30;99.90;;;;;;5055099;28;20031;-74
2022/03/26 08:27:30;;;;;;;6.13;2.35;;;20.20;99.90;;;;;;5073124;28;20096;-74
2022/03/26 08:29:57;;;;;;;6.50;2.05;;;20.20;99.90;;;;;;5073052;28;20028;-74
2022/03/26 08:32:24;;;;;;;4.80;1.80;;;20.20;99.90;;;;;;5073056;28;20020;-74
2022/03/26 08:34:52;;;;;;;4.85;1.60;;;20.20;99.90;;;;;;5072988;28;20051;-74
2022/03/26 08:37:19;;;;;;;4.05;1.38;;;20.20;99.90;;;;;;5072728;28;20135;-73
2022/03/26 08:39:46;;;;;;;4.70;1.50;;;20.30;99.90;;;;;;5072652;28;20021;-73
2022/03/26 08:42:14;;;;;;;5.65;1.35;;;20.30;99.90;;;;;;5072624;28;20107;-73
2022/03/26 08:44:41;;;;;;;4.45;1.13;;;20.20;99.90;;;;;;5072560;28;20016;-73
2022/03/26 08:47:11;;;;;;;4.13;1.30;;;20.10;99.90;;;;;;5054868;28;20027;-73
2022/03/26 08:49:38;;;;;;;5.43;1.60;;;20.00;99.90;;;;;;5054941;28;20496;-73
2022/03/26 08:52:06;;;;;;;4.63;1.60;;;20.00;99.90;;;;;;5072777;28;20043;-73
2022/03/26 08:54:34;;;;;;;3.03;1.10;;;20.00;99.90;;;;;;5072724;28;20020;-73
2022/03/26 08:57:01;;;;;;;5.30;1.52;;;20.00;99.90;;;;;;5054834;28;20043;-73
2022/03/26 08:59:28;;;;;;;5.53;1.23;;;19.90;99.90;;;;;;5072579;28;20471;-73
2022/03/26 09:01:56;;;;;;;7.32;1.80;;;19.90;99.90;;;;;;5054654;28;20028;-75
2022/03/26 09:04:23;;;;;;;6.45;2.22;;;19.90;99.90;;;;;;5072431;28;20028;-74
2022/03/26 09:06:50;;;;;;;5.45;1.65;;;19.90;99.90;;;;;;5072587;28;20019;-74
2022/03/26 09:09:18;;;;;;;6.68;1.92;;;19.90;99.90;;;;;;5072273;28;20044;-76
2022/03/26 09:11:45;;;;;;;4.32;1.50;;;19.90;99.90;;;;;;5054601;28;20036;-73
2022/03/26 09:14:13;;;;;;;6.70;2.25;;;19.90;99.90;;;;;;5072457;28;20473;-74
2022/03/26 09:16:41;;;;;;;2.45;1.58;;;19.90;99.90;;;;;;5072365;28;20021;-74
2022/03/26 09:19:08;;;;;;;4.82;1.80;;;19.90;99.90;;;;;;5054478;28;20029;-74
2022/03/26 09:21:36;;;;;;;3.50;1.40;;;19.80;99.90;;;;;;5054413;28;20025;-74
2022/03/26 09:24:03;;;;;;;4.35;2.05;;;19.90;99.90;;;;;;5072305;28;20491;-74
2022/03/26 09:26:31;;;;;;;3.28;1.80;;;19.80;99.90;;;;;;5054315;28;20079;-74
2022/03/26 09:28:58;;;;;;;6.75;1.90;;;19.80;99.90;;;;;;5072311;28;20473;-74
2022/03/26 09:31:26;;;;;;;6.53;2.10;;;19.70;99.90;;;;;;5054327;28;20107;-74
2022/03/26 09:33:53;;;;;;;6.03;2.08;;;19.70;99.90;;;;;;5054631;28;20024;-74
2022/03/26 09:36:20;;;;;;;6.63;2.53;;;19.60;99.90;;;;;;5054345;28;20029;-74
2022/03/26 09:38:48;;;;;;;7.25;2.10;;;19.50;99.90;;;;;;5054423;28;20024;-73
2022/03/26 09:41:16;;;;;;;5.78;2.08;;;19.50;99.90;;;;;;5072231;28;20024;-74
2022/03/26 09:43:44;;;;;;;6.38;2.20;;;19.50;99.90;;;;;;5072148;28;20101;-73
2022/03/26 09:46:12;;;;;;;4.47;2.17;;;19.30;99.90;;;;;;5072140;28;20024;-73
2022/03/26 09:48:43;;;;;;;6.13;2.40;;;19.20;99.90;;;;;;5054047;28;20489;-74
2022/03/26 09:51:15;;;;;;;6.88;3.35;;;19.20;99.90;;;;;;5072201;28;20473;-74
2022/03/26 09:53:44;;;;;;;7.40;4.97;;;19.20;99.90;;;;;;5072088;28;20029;-74
2022/03/26 09:56:12;;;;;;;8.27;4.18;;;19.20;99.90;;;;;;5072089;28;20020;-74
2022/03/26 09:58:40;;;;;;;13.75;5.30;;;19.10;99.90;;;;;;5072059;28;20665;-74
2022/03/26 10:01:07;;;;;;;9.02;4.95;;;19.00;99.90;;;;;;5072135;28;20445;-74
2022/03/26 10:03:38;;;;;;;6.85;4.70;;;19.00;99.90;;;;;;5053886;28;20484;-75
2022/03/26 10:06:07;;;;;;;7.43;4.28;;;19.00;99.90;;;;;;5072187;28;20442;-74
2022/03/26 10:08:41;;;;;;;8.10;4.45;;;18.90;99.90;;;;;;5053756;28;20055;-74
2022/03/26 10:11:20;;;;;;;6.82;4.40;;;18.80;99.90;;;;;;5072584;28;20013;-75
2022/03/26 10:13:48;;;;;;;9.35;4.45;;;18.80;99.90;;;;;;5072629;28;20021;-76
2022/03/26 10:16:17;;;;;;;7.40;3.63;;;18.80;99.90;;;;;;5072134;28;20435;-75
2022/03/26 10:18:50;;;;;;;5.55;3.63;;;18.90;99.90;;;;;;5037596;28;20036;-74
2022/03/26 10:21:20;;;;;;;9.13;3.83;;;18.90;99.90;;;;;;5071895;28;20023;-76
2022/03/26 10:23:52;;;;;;;7.80;3.78;;;18.90;99.90;;;;;;5073064;28;20092;-75
2022/03/26 10:26:24;;;;;;;8.25;3.83;;;18.90;99.90;;;;;;5075915;28;20071;-75
2022/03/26 10:28:57;;;;;;;6.90;3.40;;;18.70;99.90;;;;;;5057850;28;20118;-75
2022/03/26 10:34:20;;;;;;;8.38;4.28;;;18.60;99.90;;;;;;5075700;28;20035;-75
2022/03/26 10:36:55;;;;;;;8.75;4.20;;;18.60;99.90;;;;;;5075321;28;20082;-75
2022/03/26 10:39:24;;;;;;;8.52;3.97;;;18.50;99.90;;;;;;5075555;28;20029;-75
2022/03/26 10:41:53;;;;;;;7.30;3.75;;;18.50;99.90;;;;;;5075316;28;20048;-76
2022/03/26 10:44:28;;;;;;;9.25;3.00;;;18.40;99.90;;;;;;5075328;28;20029;-76
2022/03/26 10:46:58;;;;;;;5.93;2.53;;;18.40;99.90;;;;;;5075289;28;20016;-75
2022/03/26 10:49:29;;;;;;;7.30;2.53;;;18.40;99.90;;;;;;5075375;28;20480;-76
2022/03/26 10:52:04;;;;;;;6.65;2.35;;;18.40;99.90;;;;;;5057274;28;20017;-76
2022/03/26 10:54:33;;;;;;;4.25;2.08;;;18.30;99.90;;;;;;5057306;28;20039;-75
2022/03/26 10:57:01;;;;;;;4.53;2.20;;;18.30;99.90;;;;;;5075098;28;20464;-76
2022/03/26 10:59:29;;;;;;;4.82;2.25;;;18.30;99.90;;;;;;5075191;28;20024;-75
2022/03/26 11:02:00;;;;;;;4.43;2.50;;;18.20;99.90;;;;;;5075020;28;20111;-75
2022/03/26 11:04:29;;;;;;;7.70;2.67;;;18.20;99.90;;;;;;5056808;28;20410;-75
2022/03/26 11:06:57;;;;;;;5.68;2.20;;;18.10;99.90;;;;;;5074835;28;20016;-75
2022/03/26 11:09:26;;;;;;;4.80;2.30;;;18.10;99.90;;;;;;5056449;28;20048;-75
2022/03/26 11:11:55;;;;;;;5.57;2.00;;;18.00;99.90;;;;;;5074741;28;20059;-75
2022/03/26 11:14:36;;;;;;;6.38;2.55;;;18.00;99.90;;;;;;5074605;28;20032;-75
2022/03/26 11:17:26;;;;;;;4.13;1.77;;;18.00;99.90;;;;;;5074656;28;20035;-75
2022/03/26 11:19:59;;;;;;;7.50;3.15;;;17.90;99.90;;;;;;5074556;28;20067;-75
2022/03/26 11:22:30;;;;;;;8.38;2.40;;;17.90;99.90;;;;;;5074309;28;20016;-75
2022/03/26 11:25:12;;;;;;;;;;;17.90;99.90;;;;;;5074682;28;20020;-75
2022/03/26 11:28:06;;;;;;;5.55;2.42;;;17.90;99.90;;;;;;5056475;28;19909;-75
2022/03/26 11:30:52;;;;;;;7.78;2.17;;;17.90;99.90;;;;;;5056384;28;20074;-75
2022/03/26 11:33:20;;;;;;;6.70;2.28;;;18.00;99.90;;;;;;5074424;28;20024;-75
2022/03/26 11:35:59;;;;;;;5.82;2.50;;;18.00;99.90;;;;;;5074074;28;20024;-76
2022/03/26 11:38:31;;;;;;;8.18;2.47;;;18.00;99.90;;;;;;5056168;28;20025;-76
2022/03/26 11:41:08;;;;;;;8.13;2.70;;;18.00;99.90;;;;;;5056241;28;20448;-75
2022/03/26 11:43:45;;;;;;;6.55;2.00;;;17.90;99.90;;;;;;5056074;28;20059;-75
2022/03/26 11:52:19;;;;;;;6.53;2.53;;;17.90;99.90;;;;;;5073947;28;20486;-75
2022/03/26 11:54:55;;;;;;;5.47;2.20;;;18.00;99.90;;;;;;5056018;28;20028;-75
2022/03/26 11:57:25;;;;;;;4.38;2.03;;;18.10;99.90;;;;;;5055834;28;20039;-75
2022/03/26 12:00:00;;;;;;;5.72;2.42;;;18.10;99.90;;;;;;5073903;28;20028;-75
2022/03/26 12:02:34;;;;;;;4.40;2.60;;;18.10;99.90;;;;;;5073722;28;20026;-76
2022/03/26 12:08:35;;;;;;;8.10;2.60;;;18.20;99.90;;;;;;5073675;28;20036;-76
2022/03/26 12:11:02;;;;;;;8.02;2.45;;;18.20;99.90;;;;;;5073488;28;20103;-76
2022/03/26 12:13:34;;;;;;;6.43;2.35;;;18.20;99.90;;;;;;5073443;28;20060;-75
2022/03/26 12:16:05;;;;;;;4.88;2.13;;;18.30;99.90;;;;;;5073478;28;20017;-75
2022/03/26 12:18:37;;;;;;;6.78;3.25;;;18.30;99.90;;;;;;5073389;28;20024;-75
2022/03/26 12:21:09;;;;;;;7.40;2.58;;;18.30;99.90;;;;;;5073353;28;20534;-75
2022/03/26 12:23:36;;;;;;;7.28;2.42;;;18.30;99.90;;;;;;5055181;28;20107;-75
2022/03/26 12:26:07;;;;;;;5.05;2.38;;;18.20;99.90;;;;;;5055316;28;20396;-74
2022/03/26 12:28:40;;;;;;;4.10;2.10;;;18.20;99.90;;;;;;5073231;28;20052;-75
2022/03/26 12:31:12;;;;;;;6.68;3.08;;;18.20;99.90;;;;;;5055255;28;20017;-75
2022/03/26 12:33:50;;;;;;;5.65;2.33;;;18.10;99.90;;;;;;5073178;28;20039;-75
2022/03/26 12:36:20;;;;;;;7.35;2.42;;;18.20;99.90;;;;;;5073130;28;20043;-75
2022/03/26 12:38:54;;;;;;;4.75;2.25;;;18.20;99.90;;;;;;5073043;28;20024;-76
2022/03/26 12:41:22;;;;;;;5.63;2.05;;;18.10;99.90;;;;;;5055074;28;20602;-75
2022/03/26 12:43:59;;;;;;;10.15;2.60;;;18.10;99.90;;;;;;5072854;28;20073;-75
2022/03/26 12:46:38;;;;;;;7.05;2.53;;;18.00;99.90;;;;;;5072445;28;20016;-75
2022/03/26 12:49:18;;;;;;;5.78;2.28;;;18.00;99.90;;;;;;5072943;28;20013;-75
2022/03/26 12:51:52;;;;;;;7.10;2.67;;;18.00;99.90;;;;;;5054833;28;20411;-75
2022/03/26 12:54:22;;;;;;;6.13;2.03;;;18.00;99.90;;;;;;5072846;28;20032;-75
2022/03/26 12:56:53;;;;;;;8.80;2.50;;;18.00;99.90;;;;;;5054750;28;20030;-75
2022/03/26 12:59:21;;;;;;;5.97;2.20;;;18.00;99.90;;;;;;5054731;28;20032;-75
2022/03/26 13:01:55;;;;;;;3.17;1.63;;;17.90;99.90;;;;;;5054742;28;20029;-75
2022/03/26 13:04:23;;;;;;;7.25;1.75;;;17.90;99.90;;;;;;5054559;28;20033;-75
2022/03/26 13:06:57;;;;;;;2.95;1.33;;;17.90;99.90;;;;;;5072653;28;20036;-75
2022/03/26 13:09:32;;;;;;;4.00;1.30;;;17.90;99.90;;;;;;5054377;28;20052;-75